Aeroporto :
LOGIN :

Iscrizione | Disclaimer

   EN    FR    IT 

 










Sommario :    VFR   VFR Marginale   IFR   IFR Intensivo   IFR Molto Intensivo
Visibilità : 
Base nubi : 
>= 8 km
>= 3000ft
5 / 8 km
1000 / 3000 ft
1500m / 5 km
500 / 1000 ft
800 / 1500m
200 / 500 ft
< 800m
< 200 ft
Simboli :   Temporali  Nebbia  Neve Forte  Precipitazioni Forti  Vento > 20 kt
SIGMETs :   Varie  Temporali  Ghiacco  Turbolenza  Onda orograficha  Ceneri Vulcaniche






- Altitudine del aeroporto : 400 ft
- Codice IATA : BNX


LQBK - Banja Luka

ULTIMO METAR :
  • 231900Z 18012KT 9999 FEW023 15/03 Q1001 NOSIG

METARs OBSOLETI :
  • 231830Z 18015G25KT 160V220 9999 FEW023 15/03 Q1002 NOSIG
  • 231800Z 17006KT 120V190 9999 FEW023 15/03 Q1002 NOSIG
  • 231730Z 17012KT CAVOK 14/03 Q1002 NOSIG
  • 231700Z 17015G26KT CAVOK 15/03 Q1002 NOSIG
  • 231630Z 15007KT 110V210 CAVOK 14/03 Q1002 NOSIG
  • 231600Z 17011KT CAVOK 14/03 Q1002 NOSIG
  • 231530Z 19015KT CAVOK 15/03 Q1003 NOSIG
  • 231500Z 19019KT CAVOK 15/03 Q1003 NOSIG
  • 231430Z 19024G37KT CAVOK 15/03 Q1003 NOSIG

TAF TAF LQBK
Valido dal 23 a 18 ore il 24 a 18 ore UTC


231700Z 2318/2418 22010KT 9999 SCT047 TX16/2413Z TN10/2406Z
PROB40
TEMPO 2318/2323 18020G30KT
PROB30
TEMPO 2402/2406 33015G25KT 5000 TSRA FEW030CB BKN045



MetMap, La meteo Aeronautica in un colpo d'occhio ! - Copyright ORBIFLY Dicembre 2007 - Disclaimer

ORBIFLY MET'MAP TEAM :

Programmazione e sviluppo : Alexandra Zaïnal
Concezione : Baudouin d'Aumeries
Supporto tecnico e logistico : Manuel Goepfert
Aiuto : Marc-Olivier Méhu
Aiuto per la traduzione : Arnaldo La Scala




FONTI E CREDITI :

   NOAA